Aviation Digital Data Service (ADDS)

Output produced by METARs form (0728 UTC 09 February 2016)
found at http://aviationweather.gov/adds/metars/
 
KALB 090542Z 0906/1006 VRB03KT 4SM -SN OVC035 
     TEMPO 0906/0909 2SM -SN OVC025 
     FM090900 VRB03KT 6SM -SN OVC015 
     FM091500 VRB03KT P6SM BKN025 OVC050 
     FM092200 VRB03KT P6SM SCT025 OVC050 
     FM100300 VRB03KT 6SM BR BKN025 OVC050